sensor_id;sensor_type;location;lat;lon;timestamp;P1;durP1;ratioP1;P2;durP2;ratioP2
11123;SDS011;5616;42.692;23.312;2022-11-11T00:02:40;54.53;;;37.07;;
11123;SDS011;5616;42.692;23.312;2022-11-11T00:05:25;50.87;;;36.20;;
11123;SDS011;5616;42.692;23.312;2022-11-11T00:08:13;50.50;;;36.17;;
11123;SDS011;5616;42.692;23.312;2022-11-11T00:11:01;53.93;;;37.00;;
11123;SDS011;5616;42.692;23.312;2022-11-11T00:13:48;51.53;;;35.77;;
11123;SDS011;5616;42.692;23.312;2022-11-11T00:16:33;48.00;;;35.93;;
11123;SDS011;5616;42.692;23.312;2022-11-11T00:19:32;48.83;;;36.30;;
11123;SDS011;5616;42.692;23.312;2022-11-11T00:22:35;55.13;;;37.97;;
11123;SDS011;5616;42.692;23.312;2022-11-11T00:25:39;53.17;;;36.03;;
11123;SDS011;5616;42.692;23.312;2022-11-11T00:28:24;38.88;;;27.42;;
11123;SDS011;5616;42.692;23.312;2022-11-11T00:31:11;43.10;;;33.33;;
11123;SDS011;5616;42.692;23.312;2022-11-11T00:33:57;54.23;;;37.00;;
11123;SDS011;5616;42.692;23.312;2022-11-11T00:36:43;46.67;;;32.27;;
11123;SDS011;5616;42.692;23.312;2022-11-11T00:39:27;42.10;;;29.50;;
11123;SDS011;5616;42.692;23.312;2022-11-11T00:42:14;35.40;;;27.03;;
11123;SDS011;5616;42.692;23.312;2022-11-11T00:44:59;32.50;;;24.43;;
11123;SDS011;5616;42.692;23.312;2022-11-11T00:47:45;29.93;;;23.23;;
11123;SDS011;5616;42.692;23.312;2022-11-11T00:50:47;30.20;;;21.40;;
11123;SDS011;5616;42.692;23.312;2022-11-11T00:53:42;29.77;;;21.37;;
11123;SDS011;5616;42.692;23.312;2022-11-11T00:56:27;29.23;;;21.07;;
11123;SDS011;5616;42.692;23.312;2022-11-11T00:59:14;26.93;;;20.87;;
11123;SDS011;5616;42.692;23.312;2022-11-11T01:01:59;27.17;;;20.20;;
11123;SDS011;5616;42.692;23.312;2022-11-11T01:04:45;25.87;;;20.83;;
11123;SDS011;5616;42.692;23.312;2022-11-11T01:07:30;30.37;;;21.17;;
11123;SDS011;5616;42.692;23.312;2022-11-11T01:10:16;30.50;;;22.07;;
11123;SDS011;5616;42.692;23.312;2022-11-11T01:13:21;27.00;;;19.63;;
11123;SDS011;5616;42.692;23.312;2022-11-11T01:16:10;26.73;;;20.23;;
11123;SDS011;5616;42.692;23.312;2022-11-11T01:18:57;25.17;;;20.70;;
11123;SDS011;5616;42.692;23.312;2022-11-11T01:21:42;25.83;;;20.10;;
11123;SDS011;5616;42.692;23.312;2022-11-11T01:24:28;27.90;;;20.50;;
11123;SDS011;5616;42.692;23.312;2022-11-11T01:27:13;29.90;;;21.13;;
11123;SDS011;5616;42.692;23.312;2022-11-11T01:29:59;28.10;;;21.50;;
11123;SDS011;5616;42.692;23.312;2022-11-11T01:32:45;32.57;;;21.03;;
11123;SDS011;5616;42.692;23.312;2022-11-11T01:35:31;30.17;;;20.90;;
11123;SDS011;5616;42.692;23.312;2022-11-11T01:38:16;29.83;;;22.17;;
11123;SDS011;5616;42.692;23.312;2022-11-11T01:41:02;29.03;;;21.30;;
11123;SDS011;5616;42.692;23.312;2022-11-11T01:44:17;31.80;;;21.00;;
11123;SDS011;5616;42.692;23.312;2022-11-11T01:47:04;28.63;;;20.77;;
11123;SDS011;5616;42.692;23.312;2022-11-11T01:49:53;28.67;;;21.03;;
11123;SDS011;5616;42.692;23.312;2022-11-11T01:52:40;27.60;;;21.60;;
11123;SDS011;5616;42.692;23.312;2022-11-11T01:55:27;31.57;;;21.50;;
11123;SDS011;5616;42.692;23.312;2022-11-11T01:58:13;29.30;;;21.67;;
11123;SDS011;5616;42.692;23.312;2022-11-11T02:01:01;30.97;;;22.60;;
11123;SDS011;5616;42.692;23.312;2022-11-11T02:03:48;30.10;;;21.97;;
11123;SDS011;5616;42.692;23.312;2022-11-11T02:06:51;29.20;;;22.07;;
11123;SDS011;5616;42.692;23.312;2022-11-11T02:09:40;32.83;;;22.23;;
11123;SDS011;5616;42.692;23.312;2022-11-11T02:12:29;28.30;;;21.53;;
11123;SDS011;5616;42.692;23.312;2022-11-11T02:15:31;33.37;;;23.53;;
11123;SDS011;5616;42.692;23.312;2022-11-11T02:18:17;30.90;;;22.70;;
11123;SDS011;5616;42.692;23.312;2022-11-11T02:21:02;32.20;;;24.03;;
11123;SDS011;5616;42.692;23.312;2022-11-11T02:23:53;32.93;;;24.00;;
11123;SDS011;5616;42.692;23.312;2022-11-11T02:26:46;33.70;;;23.93;;
11123;SDS011;5616;42.692;23.312;2022-11-11T02:29:32;33.00;;;23.90;;
11123;SDS011;5616;42.692;23.312;2022-11-11T02:32:20;30.90;;;23.37;;
11123;SDS011;5616;42.692;23.312;2022-11-11T02:35:08;33.23;;;23.23;;
11123;SDS011;5616;42.692;23.312;2022-11-11T02:37:57;29.97;;;22.60;;
11123;SDS011;5616;42.692;23.312;2022-11-11T02:40:46;31.03;;;23.37;;
11123;SDS011;5616;42.692;23.312;2022-11-11T02:43:45;33.00;;;23.37;;
11123;SDS011;5616;42.692;23.312;2022-11-11T02:46:30;33.23;;;24.20;;
11123;SDS011;5616;42.692;23.312;2022-11-11T02:49:16;31.57;;;25.17;;
11123;SDS011;5616;42.692;23.312;2022-11-11T02:52:01;32.70;;;23.40;;
11123;SDS011;5616;42.692;23.312;2022-11-11T02:54:46;33.83;;;24.70;;
11123;SDS011;5616;42.692;23.312;2022-11-11T02:57:33;32.00;;;23.93;;
11123;SDS011;5616;42.692;23.312;2022-11-11T03:00:19;32.10;;;24.47;;
11123;SDS011;5616;42.692;23.312;2022-11-11T03:03:05;29.83;;;23.43;;
11123;SDS011;5616;42.692;23.312;2022-11-11T03:05:50;31.80;;;23.43;;
11123;SDS011;5616;42.692;23.312;2022-11-11T03:08:36;34.73;;;24.33;;
11123;SDS011;5616;42.692;23.312;2022-11-11T03:11:21;31.80;;;23.93;;
11123;SDS011;5616;42.692;23.312;2022-11-11T03:14:12;31.80;;;24.00;;
11123;SDS011;5616;42.692;23.312;2022-11-11T03:16:57;31.67;;;23.77;;
11123;SDS011;5616;42.692;23.312;2022-11-11T03:20:00;31.03;;;22.57;;
11123;SDS011;5616;42.692;23.312;2022-11-11T03:23:04;32.23;;;23.23;;
11123;SDS011;5616;42.692;23.312;2022-11-11T03:25:50;29.40;;;22.67;;
11123;SDS011;5616;42.692;23.312;2022-11-11T03:28:35;27.97;;;22.93;;
11123;SDS011;5616;42.692;23.312;2022-11-11T03:31:22;30.00;;;22.40;;
11123;SDS011;5616;42.692;23.312;2022-11-11T03:34:07;34.37;;;24.23;;
11123;SDS011;5616;42.692;23.312;2022-11-11T03:37:02;33.93;;;24.00;;
11123;SDS011;5616;42.692;23.312;2022-11-11T03:40:06;31.10;;;23.03;;
11123;SDS011;5616;42.692;23.312;2022-11-11T03:42:52;32.00;;;24.17;;
11123;SDS011;5616;42.692;23.312;2022-11-11T03:45:38;32.57;;;24.47;;
11123;SDS011;5616;42.692;23.312;2022-11-11T03:48:25;31.53;;;24.63;;
11123;SDS011;5616;42.692;23.312;2022-11-11T03:51:11;31.57;;;24.07;;
11123;SDS011;5616;42.692;23.312;2022-11-11T03:53:57;29.17;;;23.40;;
11123;SDS011;5616;42.692;23.312;2022-11-11T03:56:42;31.47;;;23.20;;
11123;SDS011;5616;42.692;23.312;2022-11-11T03:59:27;32.37;;;23.93;;
11123;SDS011;5616;42.692;23.312;2022-11-11T04:02:13;32.97;;;25.17;;
11123;SDS011;5616;42.692;23.312;2022-11-11T04:05:18;35.67;;;24.23;;
11123;SDS011;5616;42.692;23.312;2022-11-11T04:08:21;34.00;;;25.43;;
11123;SDS011;5616;42.692;23.312;2022-11-11T04:11:24;35.53;;;25.27;;
11123;SDS011;5616;42.692;23.312;2022-11-11T04:14:12;37.13;;;25.73;;
11123;SDS011;5616;42.692;23.312;2022-11-11T04:17:16;36.10;;;26.50;;
11123;SDS011;5616;42.692;23.312;2022-11-11T04:20:01;34.90;;;25.83;;
11123;SDS011;5616;42.692;23.312;2022-11-11T04:23:06;33.70;;;26.10;;
11123;SDS011;5616;42.692;23.312;2022-11-11T04:25:51;33.53;;;24.73;;
11123;SDS011;5616;42.692;23.312;2022-11-11T04:28:38;33.53;;;24.50;;
11123;SDS011;5616;42.692;23.312;2022-11-11T04:31:41;37.60;;;24.97;;
11123;SDS011;5616;42.692;23.312;2022-11-11T04:34:40;32.43;;;23.63;;
11123;SDS011;5616;42.692;23.312;2022-11-11T04:37:26;34.90;;;24.10;;
11123;SDS011;5616;42.692;23.312;2022-11-11T04:40:16;31.40;;;24.57;;
11123;SDS011;5616;42.692;23.312;2022-11-11T04:43:19;29.00;;;23.43;;
11123;SDS011;5616;42.692;23.312;2022-11-11T04:46:04;33.70;;;24.50;;
11123;SDS011;5616;42.692;23.312;2022-11-11T04:48:49;30.23;;;22.80;;
11123;SDS011;5616;42.692;23.312;2022-11-11T04:51:34;30.77;;;23.10;;
11123;SDS011;5616;42.692;23.312;2022-11-11T04:54:33;33.10;;;23.37;;
11123;SDS011;5616;42.692;23.312;2022-11-11T04:57:41;27.83;;;22.07;;
11123;SDS011;5616;42.692;23.312;2022-11-11T05:00:25;29.03;;;22.93;;
11123;SDS011;5616;42.692;23.312;2022-11-11T05:03:11;32.45;;;24.88;;
11123;SDS011;5616;42.692;23.312;2022-11-11T05:05:59;26.10;;;21.10;;
11123;SDS011;5616;42.692;23.312;2022-11-11T05:09:02;27.17;;;21.57;;
11123;SDS011;5616;42.692;23.312;2022-11-11T05:11:48;27.80;;;20.97;;
11123;SDS011;5616;42.692;23.312;2022-11-11T05:14:34;27.03;;;20.10;;
11123;SDS011;5616;42.692;23.312;2022-11-11T05:17:37;28.00;;;19.10;;
11123;SDS011;5616;42.692;23.312;2022-11-11T05:20:52;24.33;;;18.77;;
11123;SDS011;5616;42.692;23.312;2022-11-11T05:23:55;24.00;;;17.83;;
11123;SDS011;5616;42.692;23.312;2022-11-11T05:26:58;23.47;;;18.63;;
11123;SDS011;5616;42.692;23.312;2022-11-11T05:29:45;23.90;;;18.83;;
11123;SDS011;5616;42.692;23.312;2022-11-11T05:32:30;24.13;;;18.10;;
11123;SDS011;5616;42.692;23.312;2022-11-11T05:35:16;22.63;;;17.73;;
11123;SDS011;5616;42.692;23.312;2022-11-11T05:38:01;24.30;;;18.67;;
11123;SDS011;5616;42.692;23.312;2022-11-11T05:41:05;21.73;;;16.10;;
11123;SDS011;5616;42.692;23.312;2022-11-11T05:43:52;18.87;;;15.03;;
11123;SDS011;5616;42.692;23.312;2022-11-11T05:46:38;19.53;;;14.93;;
11123;SDS011;5616;42.692;23.312;2022-11-11T05:49:24;19.37;;;15.13;;
11123;SDS011;5616;42.692;23.312;2022-11-11T05:52:10;20.07;;;15.73;;
11123;SDS011;5616;42.692;23.312;2022-11-11T05:54:56;19.60;;;16.03;;
11123;SDS011;5616;42.692;23.312;2022-11-11T05:57:41;21.87;;;16.73;;
11123;SDS011;5616;42.692;23.312;2022-11-11T06:00:27;19.20;;;16.57;;
11123;SDS011;5616;42.692;23.312;2022-11-11T06:03:13;21.10;;;17.00;;
11123;SDS011;5616;42.692;23.312;2022-11-11T06:05:58;22.60;;;16.60;;
11123;SDS011;5616;42.692;23.312;2022-11-11T06:08:44;21.17;;;16.73;;
11123;SDS011;5616;42.692;23.312;2022-11-11T06:11:29;24.17;;;16.93;;
11123;SDS011;5616;42.692;23.312;2022-11-11T06:14:15;22.27;;;16.80;;
11123;SDS011;5616;42.692;23.312;2022-11-11T06:17:00;25.23;;;16.63;;
11123;SDS011;5616;42.692;23.312;2022-11-11T06:19:47;23.17;;;16.97;;
11123;SDS011;5616;42.692;23.312;2022-11-11T06:22:32;24.27;;;17.47;;
11123;SDS011;5616;42.692;23.312;2022-11-11T06:25:32;21.97;;;16.57;;
11123;SDS011;5616;42.692;23.312;2022-11-11T06:28:35;24.17;;;17.73;;
11123;SDS011;5616;42.692;23.312;2022-11-11T06:31:23;21.87;;;16.40;;
11123;SDS011;5616;42.692;23.312;2022-11-11T06:34:09;23.97;;;16.73;;
11123;SDS011;5616;42.692;23.312;2022-11-11T06:36:55;22.47;;;15.90;;
11123;SDS011;5616;42.692;23.312;2022-11-11T06:39:41;21.30;;;16.07;;
11123;SDS011;5616;42.692;23.312;2022-11-11T06:42:26;20.47;;;16.03;;
11123;SDS011;5616;42.692;23.312;2022-11-11T06:45:12;24.37;;;16.70;;
11123;SDS011;5616;42.692;23.312;2022-11-11T06:47:57;22.77;;;16.57;;
11123;SDS011;5616;42.692;23.312;2022-11-11T06:50:42;21.07;;;15.57;;
11123;SDS011;5616;42.692;23.312;2022-11-11T06:53:29;24.03;;;16.60;;
11123;SDS011;5616;42.692;23.312;2022-11-11T06:56:15;25.80;;;17.43;;
11123;SDS011;5616;42.692;23.312;2022-11-11T06:59:00;21.47;;;16.57;;
11123;SDS011;5616;42.692;23.312;2022-11-11T07:01:45;24.00;;;17.60;;
11123;SDS011;5616;42.692;23.312;2022-11-11T07:04:31;22.27;;;16.77;;
11123;SDS011;5616;42.692;23.312;2022-11-11T07:07:16;20.77;;;16.33;;
11123;SDS011;5616;42.692;23.312;2022-11-11T07:10:03;24.17;;;17.20;;
11123;SDS011;5616;42.692;23.312;2022-11-11T07:12:50;21.67;;;15.47;;
11123;SDS011;5616;42.692;23.312;2022-11-11T07:15:35;20.83;;;15.57;;
11123;SDS011;5616;42.692;23.312;2022-11-11T07:18:21;21.03;;;15.80;;
11123;SDS011;5616;42.692;23.312;2022-11-11T07:21:06;22.10;;;16.33;;
11123;SDS011;5616;42.692;23.312;2022-11-11T07:23:52;20.70;;;15.27;;
11123;SDS011;5616;42.692;23.312;2022-11-11T07:26:38;22.13;;;15.90;;
11123;SDS011;5616;42.692;23.312;2022-11-11T07:29:25;23.53;;;16.10;;
11123;SDS011;5616;42.692;23.312;2022-11-11T07:32:11;20.80;;;15.63;;
11123;SDS011;5616;42.692;23.312;2022-11-11T07:34:57;23.13;;;15.97;;
11123;SDS011;5616;42.692;23.312;2022-11-11T07:37:43;22.57;;;15.90;;
11123;SDS011;5616;42.692;23.312;2022-11-11T07:40:28;21.97;;;15.63;;
11123;SDS011;5616;42.692;23.312;2022-11-11T07:43:15;21.93;;;15.20;;
11123;SDS011;5616;42.692;23.312;2022-11-11T07:46:01;22.33;;;15.73;;
11123;SDS011;5616;42.692;23.312;2022-11-11T07:48:46;21.83;;;15.13;;
11123;SDS011;5616;42.692;23.312;2022-11-11T07:51:32;23.20;;;15.60;;
11123;SDS011;5616;42.692;23.312;2022-11-11T07:54:17;21.13;;;14.53;;
11123;SDS011;5616;42.692;23.312;2022-11-11T07:57:02;20.83;;;14.07;;
11123;SDS011;5616;42.692;23.312;2022-11-11T07:59:49;20.57;;;13.10;;
11123;SDS011;5616;42.692;23.312;2022-11-11T08:02:34;22.13;;;13.23;;
11123;SDS011;5616;42.692;23.312;2022-11-11T08:05:20;20.43;;;13.97;;
11123;SDS011;5616;42.692;23.312;2022-11-11T08:08:05;21.73;;;13.27;;
11123;SDS011;5616;42.692;23.312;2022-11-11T08:10:52;19.03;;;13.90;;
11123;SDS011;5616;42.692;23.312;2022-11-11T08:13:38;18.10;;;13.13;;
11123;SDS011;5616;42.692;23.312;2022-11-11T08:16:24;18.10;;;13.30;;
11123;SDS011;5616;42.692;23.312;2022-11-11T08:19:10;21.50;;;14.73;;
11123;SDS011;5616;42.692;23.312;2022-11-11T08:21:55;17.97;;;14.50;;
11123;SDS011;5616;42.692;23.312;2022-11-11T08:24:41;19.63;;;14.20;;
11123;SDS011;5616;42.692;23.312;2022-11-11T08:27:26;18.67;;;13.07;;
11123;SDS011;5616;42.692;23.312;2022-11-11T08:30:12;22.43;;;13.33;;
11123;SDS011;5616;42.692;23.312;2022-11-11T08:32:59;17.67;;;12.90;;
11123;SDS011;5616;42.692;23.312;2022-11-11T08:35:46;20.63;;;12.60;;
11123;SDS011;5616;42.692;23.312;2022-11-11T08:38:32;19.23;;;13.10;;
11123;SDS011;5616;42.692;23.312;2022-11-11T08:41:17;19.07;;;12.17;;
11123;SDS011;5616;42.692;23.312;2022-11-11T08:44:04;18.00;;;12.77;;
11123;SDS011;5616;42.692;23.312;2022-11-11T08:46:49;18.83;;;12.70;;
11123;SDS011;5616;42.692;23.312;2022-11-11T08:49:36;19.73;;;13.33;;
11123;SDS011;5616;42.692;23.312;2022-11-11T08:52:22;13.53;;;11.33;;
11123;SDS011;5616;42.692;23.312;2022-11-11T08:55:07;16.40;;;12.27;;
11123;SDS011;5616;42.692;23.312;2022-11-11T08:57:59;15.47;;;10.70;;
11123;SDS011;5616;42.692;23.312;2022-11-11T09:00:45;16.43;;;11.67;;
11123;SDS011;5616;42.692;23.312;2022-11-11T09:03:30;14.97;;;11.10;;
11123;SDS011;5616;42.692;23.312;2022-11-11T09:06:18;15.10;;;11.87;;
11123;SDS011;5616;42.692;23.312;2022-11-11T09:09:03;15.07;;;10.70;;
11123;SDS011;5616;42.692;23.312;2022-11-11T09:11:49;17.43;;;12.33;;
11123;SDS011;5616;42.692;23.312;2022-11-11T09:14:35;21.43;;;11.57;;
11123;SDS011;5616;42.692;23.312;2022-11-11T09:17:20;15.30;;;10.67;;
11123;SDS011;5616;42.692;23.312;2022-11-11T09:20:06;12.70;;;10.07;;
11123;SDS011;5616;42.692;23.312;2022-11-11T09:22:53;13.90;;;9.47;;
11123;SDS011;5616;42.692;23.312;2022-11-11T09:25:39;11.73;;;9.90;;
11123;SDS011;5616;42.692;23.312;2022-11-11T09:28:24;12.83;;;9.47;;
11123;SDS011;5616;42.692;23.312;2022-11-11T09:31:09;11.37;;;9.17;;
11123;SDS011;5616;42.692;23.312;2022-11-11T09:33:55;11.47;;;8.90;;
11123;SDS011;5616;42.692;23.312;2022-11-11T09:36:40;11.00;;;8.17;;
11123;SDS011;5616;42.692;23.312;2022-11-11T09:39:27;9.70;;;7.90;;
11123;SDS011;5616;42.692;23.312;2022-11-11T09:42:13;10.33;;;8.07;;
11123;SDS011;5616;42.692;23.312;2022-11-11T09:45:13;10.70;;;7.87;;
11123;SDS011;5616;42.692;23.312;2022-11-11T09:48:07;14.43;;;8.00;;
11123;SDS011;5616;42.692;23.312;2022-11-11T09:51:18;9.47;;;7.73;;
11123;SDS011;5616;42.692;23.312;2022-11-11T09:54:08;9.80;;;7.63;;
11123;SDS011;5616;42.692;23.312;2022-11-11T09:57:03;10.23;;;8.27;;
11123;SDS011;5616;42.692;23.312;2022-11-11T09:59:55;10.70;;;8.80;;
11123;SDS011;5616;42.692;23.312;2022-11-11T10:02:45;9.60;;;8.57;;
11123;SDS011;5616;42.692;23.312;2022-11-11T10:05:36;11.23;;;7.53;;
11123;SDS011;5616;42.692;23.312;2022-11-11T10:08:27;9.57;;;8.10;;
11123;SDS011;5616;42.692;23.312;2022-11-11T10:11:15;12.47;;;7.63;;
11123;SDS011;5616;42.692;23.312;2022-11-11T10:14:08;10.10;;;7.57;;
11123;SDS011;5616;42.692;23.312;2022-11-11T10:16:56;11.37;;;7.67;;
11123;SDS011;5616;42.692;23.312;2022-11-11T10:19:50;8.10;;;7.30;;
11123;SDS011;5616;42.692;23.312;2022-11-11T10:22:43;8.87;;;7.00;;
11123;SDS011;5616;42.692;23.312;2022-11-11T10:25:30;8.43;;;7.47;;
11123;SDS011;5616;42.692;23.312;2022-11-11T10:28:16;8.73;;;7.70;;
11123;SDS011;5616;42.692;23.312;2022-11-11T10:31:08;8.23;;;7.40;;
11123;SDS011;5616;42.692;23.312;2022-11-11T10:33:58;8.47;;;7.53;;
11123;SDS011;5616;42.692;23.312;2022-11-11T10:36:49;9.83;;;7.50;;
11123;SDS011;5616;42.692;23.312;2022-11-11T10:39:45;9.37;;;7.30;;
11123;SDS011;5616;42.692;23.312;2022-11-11T10:42:40;7.70;;;6.90;;
11123;SDS011;5616;42.692;23.312;2022-11-11T10:45:26;8.73;;;7.43;;
11123;SDS011;5616;42.692;23.312;2022-11-11T10:48:19;7.73;;;6.93;;
11123;SDS011;5616;42.692;23.312;2022-11-11T10:51:08;10.17;;;7.00;;
11123;SDS011;5616;42.692;23.312;2022-11-11T10:53:56;8.83;;;7.23;;
11123;SDS011;5616;42.692;23.312;2022-11-11T10:56:49;7.57;;;6.77;;
11123;SDS011;5616;42.692;23.312;2022-11-11T10:59:41;7.67;;;6.90;;
11123;SDS011;5616;42.692;23.312;2022-11-11T11:02:33;8.90;;;7.23;;
11123;SDS011;5616;42.692;23.312;2022-11-11T11:05:25;8.90;;;6.80;;
11123;SDS011;5616;42.692;23.312;2022-11-11T11:08:15;7.90;;;7.10;;
11123;SDS011;5616;42.692;23.312;2022-11-11T11:11:06;8.57;;;6.53;;
11123;SDS011;5616;42.692;23.312;2022-11-11T11:13:57;10.67;;;7.13;;
11123;SDS011;5616;42.692;23.312;2022-11-11T11:16:46;8.93;;;6.87;;
11123;SDS011;5616;42.692;23.312;2022-11-11T11:19:34;11.77;;;7.03;;
11123;SDS011;5616;42.692;23.312;2022-11-11T11:22:21;10.40;;;6.20;;
11123;SDS011;5616;42.692;23.312;2022-11-11T11:25:31;9.23;;;6.43;;
11123;SDS011;5616;42.692;23.312;2022-11-11T11:28:17;12.03;;;6.33;;
11123;SDS011;5616;42.692;23.312;2022-11-11T11:31:03;8.47;;;6.10;;
11123;SDS011;5616;42.692;23.312;2022-11-11T11:33:51;7.53;;;6.03;;
11123;SDS011;5616;42.692;23.312;2022-11-11T11:36:37;6.67;;;5.30;;
11123;SDS011;5616;42.692;23.312;2022-11-11T11:39:31;9.10;;;5.63;;
11123;SDS011;5616;42.692;23.312;2022-11-11T11:42:28;6.40;;;5.47;;
11123;SDS011;5616;42.692;23.312;2022-11-11T11:45:16;9.93;;;5.37;;
11123;SDS011;5616;42.692;23.312;2022-11-11T11:48:09;7.40;;;5.70;;
11123;SDS011;5616;42.692;23.312;2022-11-11T11:51:10;7.30;;;5.60;;
11123;SDS011;5616;42.692;23.312;2022-11-11T11:54:12;7.03;;;4.80;;
11123;SDS011;5616;42.692;23.312;2022-11-11T11:57:10;6.27;;;4.97;;
11123;SDS011;5616;42.692;23.312;2022-11-11T12:00:12;6.50;;;5.70;;
11123;SDS011;5616;42.692;23.312;2022-11-11T12:03:11;6.37;;;5.20;;
11123;SDS011;5616;42.692;23.312;2022-11-11T12:06:13;8.00;;;5.40;;
11123;SDS011;5616;42.692;23.312;2022-11-11T12:09:08;6.73;;;5.90;;
11123;SDS011;5616;42.692;23.312;2022-11-11T12:12:06;8.80;;;5.77;;
11123;SDS011;5616;42.692;23.312;2022-11-11T12:15:09;7.30;;;5.30;;
11123;SDS011;5616;42.692;23.312;2022-11-11T12:21:25;7.00;;;5.33;;
11123;SDS011;5616;42.692;23.312;2022-11-11T12:24:21;11.90;;;5.97;;
11123;SDS011;5616;42.692;23.312;2022-11-11T12:27:22;8.20;;;4.97;;
11123;SDS011;5616;42.692;23.312;2022-11-11T12:30:16;6.80;;;4.63;;
11123;SDS011;5616;42.692;23.312;2022-11-11T12:33:16;6.47;;;4.73;;
11123;SDS011;5616;42.692;23.312;2022-11-11T12:36:18;5.90;;;4.77;;
11123;SDS011;5616;42.692;23.312;2022-11-11T12:39:10;6.17;;;4.57;;
11123;SDS011;5616;42.692;23.312;2022-11-11T12:42:09;6.63;;;4.70;;
11123;SDS011;5616;42.692;23.312;2022-11-11T12:45:01;6.63;;;5.17;;
11123;SDS011;5616;42.692;23.312;2022-11-11T12:47:57;7.70;;;5.40;;
11123;SDS011;5616;42.692;23.312;2022-11-11T12:50:49;5.93;;;5.33;;
11123;SDS011;5616;42.692;23.312;2022-11-11T12:53:44;5.87;;;5.00;;
11123;SDS011;5616;42.692;23.312;2022-11-11T12:56:37;6.90;;;5.57;;
11123;SDS011;5616;42.692;23.312;2022-11-11T12:59:32;6.47;;;5.70;;
11123;SDS011;5616;42.692;23.312;2022-11-11T13:06:10;8.40;;;5.80;;
11123;SDS011;5616;42.692;23.312;2022-11-11T13:09:19;8.13;;;6.00;;
11123;SDS011;5616;42.692;23.312;2022-11-11T13:12:22;7.53;;;6.05;;
11123;SDS011;5616;42.692;23.312;2022-11-11T13:15:16;7.37;;;5.67;;
11123;SDS011;5616;42.692;23.312;2022-11-11T13:18:08;7.50;;;5.80;;
11123;SDS011;5616;42.692;23.312;2022-11-11T13:20:58;7.53;;;5.37;;
11123;SDS011;5616;42.692;23.312;2022-11-11T13:23:47;7.67;;;4.83;;
11123;SDS011;5616;42.692;23.312;2022-11-11T13:26:33;6.10;;;5.10;;
11123;SDS011;5616;42.692;23.312;2022-11-11T13:32:45;9.27;;;6.23;;
11123;SDS011;5616;42.692;23.312;2022-11-11T13:35:35;8.73;;;6.20;;
11123;SDS011;5616;42.692;23.312;2022-11-11T13:38:26;8.87;;;7.17;;
11123;SDS011;5616;42.692;23.312;2022-11-11T13:41:19;8.90;;;6.17;;
11123;SDS011;5616;42.692;23.312;2022-11-11T13:44:08;9.17;;;6.20;;
11123;SDS011;5616;42.692;23.312;2022-11-11T13:46:58;8.47;;;6.03;;
11123;SDS011;5616;42.692;23.312;2022-11-11T13:49:50;6.13;;;5.53;;
11123;SDS011;5616;42.692;23.312;2022-11-11T13:52:39;7.50;;;6.17;;
11123;SDS011;5616;42.692;23.312;2022-11-11T13:55:38;9.53;;;6.20;;
11123;SDS011;5616;42.692;23.312;2022-11-11T13:58:26;9.97;;;6.57;;
11123;SDS011;5616;42.692;23.312;2022-11-11T14:01:14;8.97;;;5.67;;
11123;SDS011;5616;42.692;23.312;2022-11-11T14:04:02;7.13;;;5.87;;
11123;SDS011;5616;42.692;23.312;2022-11-11T14:06:50;8.93;;;6.67;;
11123;SDS011;5616;42.692;23.312;2022-11-11T14:09:57;7.40;;;6.60;;
11123;SDS011;5616;42.692;23.312;2022-11-11T14:12:47;8.60;;;6.50;;
11123;SDS011;5616;42.692;23.312;2022-11-11T14:15:37;9.93;;;6.80;;
11123;SDS011;5616;42.692;23.312;2022-11-11T14:18:38;9.80;;;6.80;;
11123;SDS011;5616;42.692;23.312;2022-11-11T14:21:46;12.30;;;6.70;;
11123;SDS011;5616;42.692;23.312;2022-11-11T14:24:34;16.73;;;7.60;;
11123;SDS011;5616;42.692;23.312;2022-11-11T14:27:23;11.73;;;7.27;;
11123;SDS011;5616;42.692;23.312;2022-11-11T14:30:25;12.00;;;7.50;;
11123;SDS011;5616;42.692;23.312;2022-11-11T14:33:15;16.10;;;8.53;;
11123;SDS011;5616;42.692;23.312;2022-11-11T14:36:10;8.83;;;7.30;;
11123;SDS011;5616;42.692;23.312;2022-11-11T14:39:05;13.50;;;7.77;;
11123;SDS011;5616;42.692;23.312;2022-11-11T14:42:06;11.25;;;8.50;;
11123;SDS011;5616;42.692;23.312;2022-11-11T14:48:52;11.23;;;7.67;;
11123;SDS011;5616;42.692;23.312;2022-11-11T14:51:44;12.17;;;7.33;;
11123;SDS011;5616;42.692;23.312;2022-11-11T14:54:36;9.23;;;7.43;;
11123;SDS011;5616;42.692;23.312;2022-11-11T14:57:31;11.20;;;7.73;;
11123;SDS011;5616;42.692;23.312;2022-11-11T15:00:19;9.50;;;7.73;;
11123;SDS011;5616;42.692;23.312;2022-11-11T15:03:08;9.47;;;7.87;;
11123;SDS011;5616;42.692;23.312;2022-11-11T15:05:58;15.73;;;8.30;;
11123;SDS011;5616;42.692;23.312;2022-11-11T15:08:49;10.60;;;8.70;;
11123;SDS011;5616;42.692;23.312;2022-11-11T15:11:42;11.43;;;8.60;;
11123;SDS011;5616;42.692;23.312;2022-11-11T15:14:30;9.50;;;7.80;;
11123;SDS011;5616;42.692;23.312;2022-11-11T15:17:25;9.83;;;8.20;;
11123;SDS011;5616;42.692;23.312;2022-11-11T15:23:35;12.53;;;9.40;;
11123;SDS011;5616;42.692;23.312;2022-11-11T15:26:24;13.70;;;10.03;;
11123;SDS011;5616;42.692;23.312;2022-11-11T15:29:25;14.90;;;9.63;;
11123;SDS011;5616;42.692;23.312;2022-11-11T15:32:36;16.67;;;10.13;;
11123;SDS011;5616;42.692;23.312;2022-11-11T15:35:33;15.00;;;9.97;;
11123;SDS011;5616;42.692;23.312;2022-11-11T15:38:27;15.17;;;10.17;;
11123;SDS011;5616;42.692;23.312;2022-11-11T15:41:20;14.07;;;10.17;;
11123;SDS011;5616;42.692;23.312;2022-11-11T15:44:09;13.17;;;10.03;;
11123;SDS011;5616;42.692;23.312;2022-11-11T15:47:01;12.60;;;10.00;;
11123;SDS011;5616;42.692;23.312;2022-11-11T15:49:48;15.17;;;10.77;;
11123;SDS011;5616;42.692;23.312;2022-11-11T15:52:34;13.83;;;9.97;;
11123;SDS011;5616;42.692;23.312;2022-11-11T15:55:21;15.57;;;10.60;;
11123;SDS011;5616;42.692;23.312;2022-11-11T15:58:08;14.48;;;11.73;;
11123;SDS011;5616;42.692;23.312;2022-11-11T16:00:55;15.80;;;11.03;;
11123;SDS011;5616;42.692;23.312;2022-11-11T16:03:42;15.13;;;10.83;;
11123;SDS011;5616;42.692;23.312;2022-11-11T16:06:28;16.07;;;11.07;;
11123;SDS011;5616;42.692;23.312;2022-11-11T16:09:14;16.63;;;10.33;;
11123;SDS011;5616;42.692;23.312;2022-11-11T16:12:10;14.73;;;11.98;;
11123;SDS011;5616;42.692;23.312;2022-11-11T16:14:57;16.87;;;11.27;;
11123;SDS011;5616;42.692;23.312;2022-11-11T16:17:45;14.40;;;10.97;;
11123;SDS011;5616;42.692;23.312;2022-11-11T16:20:32;14.40;;;12.27;;
11123;SDS011;5616;42.692;23.312;2022-11-11T16:23:22;17.03;;;12.53;;
11123;SDS011;5616;42.692;23.312;2022-11-11T16:26:09;16.83;;;11.50;;
11123;SDS011;5616;42.692;23.312;2022-11-11T16:28:56;16.67;;;13.52;;
11123;SDS011;5616;42.692;23.312;2022-11-11T16:31:43;17.97;;;13.13;;
11123;SDS011;5616;42.692;23.312;2022-11-11T16:37:41;18.60;;;12.30;;
11123;SDS011;5616;42.692;23.312;2022-11-11T16:40:35;17.20;;;13.03;;
11123;SDS011;5616;42.692;23.312;2022-11-11T16:43:26;16.53;;;11.93;;
11123;SDS011;5616;42.692;23.312;2022-11-11T16:46:14;17.50;;;12.70;;
11123;SDS011;5616;42.692;23.312;2022-11-11T16:49:23;17.80;;;12.80;;
11123;SDS011;5616;42.692;23.312;2022-11-11T16:52:11;15.87;;;12.80;;
11123;SDS011;5616;42.692;23.312;2022-11-11T16:54:59;16.03;;;12.00;;
11123;SDS011;5616;42.692;23.312;2022-11-11T16:57:45;17.60;;;12.50;;
11123;SDS011;5616;42.692;23.312;2022-11-11T17:00:31;16.80;;;12.87;;
11123;SDS011;5616;42.692;23.312;2022-11-11T17:03:17;17.47;;;14.00;;
11123;SDS011;5616;42.692;23.312;2022-11-11T17:06:06;15.43;;;11.83;;